Time;durP1;ratioP1;P1;durP2;ratioP2;P2;SDS_P1;SDS_P2;PMS_P1;PMS_P2;Temp;Humidity;BMP_temperature;BMP_pressure;BME280_temperature;BME280_humidity;BME280_pressure;Samples;Min_cycle;Max_cycle;Signal;HPM_P1;HPM_P2
2022/01/18 00:00:45;;;;;;;10.95;5.97;;;;;;;6.52;71.27;100253.47;5032500;28;20491;-86
2022/01/18 00:03:11;;;;;;;8.70;5.53;;;;;;;6.54;72.00;100285.44;5033033;28;20056;-89
2022/01/18 00:05:36;;;;;;;11.43;5.18;;;;;;;6.49;72.71;100304.44;5032762;28;20034;-88
2022/01/18 00:08:02;;;;;;;9.93;5.03;;;;;;;6.43;73.08;100291.53;5033047;28;20021;-80
2022/01/18 00:10:30;;;;;;;8.38;4.97;;;;;;;6.47;73.41;100301.03;5033102;28;20021;-81
2022/01/18 00:20:48;;;;;;;12.23;5.50;;;;;;;6.28;74.20;100305.94;5032688;28;20084;-81
2022/01/18 00:23:14;;;;;;;11.15;5.72;;;;;;;6.29;74.20;100328.16;5033181;28;20105;-80
2022/01/18 00:25:43;;;;;;;7.93;5.40;;;;;;;6.24;74.31;100320.44;5043549;28;20021;-80
2022/01/18 00:28:09;;;;;;;9.77;5.90;;;;;;;6.26;74.62;100307.88;5048348;28;20068;-81
2022/01/18 00:35:43;;;;;;;8.10;4.97;;;;;;;6.07;74.07;100307.41;5033391;28;20430;-84
2022/01/18 00:38:27;;;;;;;6.35;4.57;;;;;;;6.11;73.58;100327.59;5034302;28;20092;-84
2022/01/18 00:40:53;;;;;;;9.05;4.80;;;;;;;6.07;73.85;100339.44;5031471;28;20049;-83
2022/01/18 00:43:19;;;;;;;7.40;5.15;;;;;;;6.04;73.32;100326.31;5033073;28;20022;-83
2022/01/18 00:45:44;;;;;;;8.23;5.22;;;;;;;6.13;73.54;100349.72;5033665;28;20021;-83
2022/01/18 00:48:10;;;;;;;8.90;5.35;;;;;;;6.12;73.68;100409.38;5036120;28;20025;-85
2022/01/18 00:50:35;;;;;;;12.10;3.58;;;;;;;6.05;72.76;100441.94;5036923;28;20030;-85
2022/01/18 00:53:05;;;;;;;4.45;2.55;;;;;;;5.59;71.57;100430.69;5036881;28;20026;-85
2022/01/18 00:55:35;;;;;;;3.03;2.20;;;;;;;5.11;71.28;100450.63;5036881;28;20022;-86
2022/01/18 00:58:01;;;;;;;5.30;2.10;;;;;;;4.79;71.94;100473.91;5037585;28;20025;-87
2022/01/18 01:00:26;;;;;;;4.90;2.13;;;;;;;4.58;71.46;100480.50;5037783;28;20083;-88
2022/01/18 01:02:52;;;;;;;7.13;2.15;;;;;;;4.07;70.86;100469.28;5038883;28;20021;-88
2022/01/18 01:05:17;;;;;;;6.53;2.92;;;;;;;3.87;71.95;100472.22;5037959;28;20052;-89
2022/01/18 01:07:43;;;;;;;2.20;1.50;;;;;;;3.51;72.93;100474.28;5042571;28;20026;-87
2022/01/18 01:10:08;;;;;;;2.47;1.60;;;;;;;3.38;73.94;100459.91;5039327;28;20471;-88
2022/01/18 01:12:34;;;;;;;5.90;1.80;;;;;;;3.29;74.35;100470.13;5037352;28;20104;-88
2022/01/18 01:15:08;;;;;;;2.92;1.70;;;;;;;3.06;74.42;100489.06;5036384;28;20067;-89
2022/01/18 01:36:37;;;;;;;3.85;2.17;;;;;;;2.33;78.45;100599.91;5036895;28;20025;-88
2022/01/18 01:42:05;;;;;;;3.08;2.38;;;;;;;2.37;78.03;100612.13;4970999;28;20066;-89
2022/01/18 01:44:43;;;;;;;4.43;2.47;;;;;;;2.41;77.79;100611.03;5041030;28;20026;-88
2022/01/18 01:47:11;;;;;;;4.95;2.40;;;;;;;2.18;77.83;100589.13;5037094;28;20210;-88
2022/01/18 01:49:38;;;;;;;8.52;2.22;;;;;;;2.29;77.87;100585.97;5038420;28;20030;-87
2022/01/18 01:52:06;;;;;;;8.80;3.20;;;;;;;2.25;77.01;100572.91;5037880;28;20406;-89
2022/01/18 01:54:32;;;;;;;5.15;2.65;;;;;;;2.27;76.63;100555.09;5036456;28;20025;-88
2022/01/18 01:56:57;;;;;;;3.58;2.40;;;;;;;2.18;75.67;100557.28;5036260;28;20036;-89
2022/01/18 01:59:23;;;;;;;3.17;2.20;;;;;;;2.25;75.19;100552.53;5037471;28;20037;-87
2022/01/18 02:01:52;;;;;;;10.07;3.20;;;;;;;2.17;75.10;100558.22;5040292;28;20483;-89
2022/01/18 02:04:17;;;;;;;3.88;2.55;;;;;;;2.37;73.84;100598.84;5056751;28;20048;-87
2022/01/18 02:06:44;;;;;;;4.50;2.47;;;;;;;2.29;73.43;100619.59;5055819;28;20105;-88
2022/01/18 02:09:09;;;;;;;3.75;2.13;;;;;;;2.33;72.42;100600.78;5020583;28;20029;-87
2022/01/18 02:11:35;;;;;;;5.68;2.88;;;;;;;2.28;72.57;100602.81;5037808;28;20033;-87
2022/01/18 02:14:01;;;;;;;7.53;2.58;;;;;;;2.33;72.16;100618.50;5035842;28;20028;-87
2022/01/18 02:22:04;;;;;;;8.52;2.70;;;;;;;2.38;70.97;100658.97;5037724;28;20095;-89
2022/01/18 02:24:29;;;;;;;13.55;3.33;;;;;;;2.41;70.56;100642.91;5034942;28;20022;-88
2022/01/18 02:26:55;;;;;;;3.08;2.03;;;;;;;2.43;69.62;100667.56;5036554;28;20037;-88
2022/01/18 02:29:21;;;;;;;3.35;1.77;;;;;;;2.41;68.50;100637.59;5035803;28;20029;-88
2022/01/18 02:31:47;;;;;;;4.88;2.58;;;;;;;2.60;68.07;100683.56;5035644;28;20029;-88
2022/01/18 02:34:19;;;;;;;5.00;2.90;;;;;;;2.58;66.96;100677.44;5041992;28;20069;-88
2022/01/18 02:36:45;;;;;;;7.25;3.67;;;;;;;2.56;66.53;100674.00;5052506;28;20026;-87
2022/01/18 02:39:13;;;;;;;5.30;2.97;;;;;;;2.57;66.49;100702.25;5045311;28;20053;-89
2022/01/18 02:41:39;;;;;;;4.35;1.73;;;;;;;2.54;65.94;100703.28;5035450;28;20033;-87
2022/01/18 02:44:12;;;;;;;11.27;3.80;;;;;;;2.72;66.25;100722.81;5036301;28;20045;-87
2022/01/18 02:46:39;;;;;;;7.10;2.78;;;;;;;2.82;66.38;100740.00;5049871;28;20033;-88
2022/01/18 02:49:05;;;;;;;6.72;2.25;;;;;;;2.83;65.15;100756.78;5043564;28;20491;-88
2022/01/18 02:51:31;;;;;;;5.47;3.20;;;;;;;2.74;64.00;100726.22;5033760;28;20029;-88
2022/01/18 02:54:01;;;;;;;7.90;3.88;;;;;;;2.92;64.44;100767.84;5033502;28;20021;-88
2022/01/18 02:56:40;;;;;;;34.95;11.80;;;;;;;2.86;63.62;100749.53;5034141;28;20029;-88
2022/01/18 03:04:17;;;;;;;6.45;2.60;;;;;;;2.94;64.57;100767.75;5035017;28;20041;-86
2022/01/18 03:06:42;;;;;;;8.27;4.18;;;;;;;2.91;65.16;100770.56;5034405;28;20033;-86
2022/01/18 03:09:08;;;;;;;3.33;2.42;;;;;;;2.88;64.85;100768.91;5033079;28;20060;-86
2022/01/18 03:11:33;;;;;;;5.57;2.83;;;;;;;3.03;65.31;100794.75;5032565;28;20486;-85
2022/01/18 03:13:59;;;;;;;16.52;2.78;;;;;;;2.96;65.13;100785.38;5032906;28;20087;-85
2022/01/18 03:16:24;;;;;;;10.57;4.82;;;;;;;2.96;65.32;100800.44;5032724;28;20052;-88
2022/01/18 03:18:50;;;;;;;6.70;3.22;;;;;;;2.95;65.40;100810.19;5034088;28;20056;-87
2022/01/18 03:21:15;;;;;;;2.63;2.17;;;;;;;2.96;65.00;100827.00;5017399;28;20041;-86
2022/01/18 03:23:50;;;;;;;7.07;2.70;;;;;;;2.98;65.43;100830.44;5034086;28;20029;-86
2022/01/18 03:26:16;;;;;;;5.68;2.95;;;;;;;2.92;65.52;100828.94;5034292;28;20156;-85
2022/01/18 03:28:42;;;;;;;4.63;2.22;;;;;;;2.89;65.53;100831.75;5034319;28;20042;-86
2022/01/18 03:31:07;;;;;;;3.63;1.98;;;;;;;2.96;64.46;100857.09;5034427;28;20463;-84
2022/01/18 03:33:34;;;;;;;3.83;2.28;;;;;;;2.80;64.92;100839.28;5034369;28;20032;-85
2022/01/18 03:36:00;;;;;;;5.93;2.58;;;;;;;2.91;65.24;100848.47;5034535;28;20104;-86
2022/01/18 03:38:30;;;;;;;3.42;2.17;;;;;;;3.02;64.12;100863.91;5035275;28;20065;-85
2022/01/18 03:41:01;;;;;;;2.92;2.03;;;;;;;3.11;63.76;100874.97;5046779;28;20073;-84
2022/01/18 03:43:29;;;;;;;5.95;2.63;;;;;;;3.03;63.33;100855.84;5058257;28;20038;-85
2022/01/18 03:46:02;;;;;;;3.85;1.80;;;;;;;3.13;63.14;100888.19;5055126;28;20021;-84
2022/01/18 03:48:32;;;;;;;3.90;2.08;;;;;;;3.04;62.56;100878.84;5047776;28;20096;-84
2022/01/18 03:50:59;;;;;;;4.78;3.13;;;;;;;3.00;62.34;100881.69;5047280;28;20053;-86
2022/01/18 03:53:25;;;;;;;13.50;7.47;;;;;;;3.00;62.20;100877.25;5041530;28;20022;-84
2022/01/18 03:55:52;;;;;;;10.30;3.35;;;;;;;3.10;61.50;100894.50;5034316;28;20025;-84
2022/01/18 03:58:17;;;;;;;11.73;7.53;;;;;;;3.00;60.66;100882.56;5032769;28;20029;-84
2022/01/18 04:00:43;;;;;;;7.63;3.65;;;;;;;2.93;60.55;100859.91;5033758;28;20048;-84
2022/01/18 04:03:09;;;;;;;13.95;7.35;;;;;;;3.07;60.20;100884.00;5032500;28;20079;-84
2022/01/18 04:05:34;;;;;;;5.68;2.90;;;;;;;3.02;60.40;100895.78;5032210;28;20036;-84
2022/01/18 04:08:00;;;;;;;5.43;2.70;;;;;;;3.02;60.67;100901.97;5031995;28;20029;-84
2022/01/18 04:10:25;;;;;;;4.03;1.90;;;;;;;3.00;61.08;100909.13;5033301;28;20029;-84
2022/01/18 04:12:51;;;;;;;2.90;1.77;;;;;;;3.04;60.73;100912.50;5033333;28;20057;-83
2022/01/18 04:15:18;;;;;;;3.63;2.30;;;;;;;2.98;61.13;100918.97;5033701;28;20041;-84
2022/01/18 04:28:52;;;;;;;3.53;2.10;;;;;;;3.00;62.92;100948.13;5037769;28;20032;-83
2022/01/18 04:31:17;;;;;;;7.10;2.38;;;;;;;2.97;62.93;100941.16;5037487;28;20541;-85
2022/01/18 04:33:43;;;;;;;6.13;3.15;;;;;;;2.96;63.04;100949.22;5036070;28;20026;-83
2022/01/18 04:36:09;;;;;;;4.75;3.28;;;;;;;3.12;62.94;100971.50;5037596;28;20049;-83
2022/01/18 04:38:36;;;;;;;13.07;3.38;;;;;;;3.07;63.10;100957.53;5035847;28;20021;-83
2022/01/18 04:41:07;;;;;;;8.32;3.67;;;;;;;3.04;63.27;100960.34;5037728;28;20606;-83
2022/01/18 04:43:52;;;;;;;5.63;3.83;;;;;;;3.10;63.30;100955.63;5036084;28;20037;-82
2022/01/18 04:49:03;;;;;;;10.57;3.72;;;;;;;3.25;63.33;100981.50;5037980;28;20032;-82
2022/01/18 04:51:29;;;;;;;11.95;6.78;;;;;;;3.39;63.28;100998.63;5036824;28;20025;-82
2022/01/18 04:53:57;;;;;;;12.02;5.80;;;;;;;3.38;63.02;100999.53;5036710;28;20051;-81
2022/01/18 04:59:15;;;;;;;12.32;5.82;;;;;;;3.13;62.92;101003.31;5016769;28;20044;-81
2022/01/18 05:01:43;;;;;;;29.00;14.27;;;;;;;3.22;63.63;101015.31;5035924;28;20052;-80
2022/01/18 05:04:09;;;;;;;11.25;5.65;;;;;;;3.21;63.48;101018.94;5037269;28;20030;-80
2022/01/18 05:06:35;;;;;;;12.05;5.85;;;;;;;3.30;63.05;101035.28;5034707;28;20467;-80
2022/01/18 05:09:07;;;;;;;13.05;5.82;;;;;;;3.24;63.17;101035.56;5035382;28;20104;-82
2022/01/18 05:11:37;;;;;;;17.27;9.30;;;;;;;3.21;63.15;101041.03;5035260;28;20104;-82
2022/01/18 05:16:46;;;;;;;12.55;6.13;;;;;;;3.29;62.85;101054.84;5036614;28;20021;-82
2022/01/18 05:24:19;;;;;;;7.27;3.70;;;;;;;3.23;61.66;101043.63;5049181;28;20088;-83
2022/01/18 05:26:44;;;;;;;19.10;8.75;;;;;;;3.21;61.36;101046.34;5056253;28;20263;-82
2022/01/18 05:29:10;;;;;;;13.15;4.93;;;;;;;3.27;60.46;101072.66;5056811;28;20021;-86
2022/01/18 05:31:35;;;;;;;14.10;5.43;;;;;;;3.23;60.08;101056.91;5061333;28;20064;-84
2022/01/18 05:34:01;;;;;;;8.10;4.60;;;;;;;3.13;60.11;101051.13;5064946;28;20029;-84
2022/01/18 05:36:27;;;;;;;9.93;5.60;;;;;;;3.34;59.69;101089.19;5062123;28;20029;-83
2022/01/18 05:38:53;;;;;;;15.77;5.85;;;;;;;3.26;59.71;101070.94;5056352;28;20082;-82
2022/01/18 05:41:18;;;;;;;7.13;4.18;;;;;;;3.40;59.41;101093.38;5059595;28;20028;-87
2022/01/18 05:43:44;;;;;;;9.77;5.22;;;;;;;3.45;59.32;101107.34;5059569;28;20107;-84
2022/01/18 05:46:10;;;;;;;9.73;5.47;;;;;;;3.53;59.49;101115.81;5056103;28;20556;-85
2022/01/18 05:48:35;;;;;;;11.38;6.20;;;;;;;3.47;59.21;101101.03;5056573;28;20059;-84
2022/01/18 05:51:01;;;;;;;10.43;5.38;;;;;;;3.70;59.24;101124.75;5055847;28;20401;-85
2022/01/18 05:53:27;;;;;;;7.32;5.03;;;;;;;3.65;59.50;101112.63;5055270;28;20020;-86
2022/01/18 05:55:53;;;;;;;10.05;4.90;;;;;;;3.74;59.95;101128.16;5056744;28;20021;-92
2022/01/18 05:58:19;;;;;;;12.45;5.13;;;;;;;3.65;59.75;101125.91;5057036;28;20059;-86
2022/01/18 06:00:52;;;;;;;8.15;3.67;;;;;;;3.77;60.30;101141.31;5054825;28;20482;-86
2022/01/18 06:03:26;;;;;;;6.30;3.60;;;;;;;3.42;60.38;101126.09;5055815;28;20025;-85
2022/01/18 06:08:35;;;;;;;7.55;4.65;;;;;;;3.17;61.54;101139.56;5039921;28;20040;-85
2022/01/18 06:11:01;;;;;;;9.57;4.47;;;;;;;3.22;61.70;101169.47;5047666;28;20025;-83
2022/01/18 06:13:28;;;;;;;7.60;4.65;;;;;;;3.09;62.03;101163.81;5041730;28;20028;-85
2022/01/18 06:15:54;;;;;;;9.05;4.55;;;;;;;3.16;62.42;101181.22;5037704;28;20037;-84
2022/01/18 06:18:22;;;;;;;8.35;4.32;;;;;;;3.02;62.36;101162.34;5018095;28;20025;-84
2022/01/18 06:20:47;;;;;;;13.82;5.60;;;;;;;2.85;62.78;101156.84;5035728;28;20025;-83
2022/01/18 06:23:14;;;;;;;11.57;6.22;;;;;;;2.92;62.77;101179.59;5036286;28;20033;-85
2022/01/18 06:25:40;;;;;;;14.40;6.18;;;;;;;2.94;62.81;101179.50;5022884;28;20095;-87
2022/01/18 06:28:06;;;;;;;13.85;6.82;;;;;;;2.84;63.09;101176.41;5042896;28;20498;-84
2022/01/18 06:30:31;;;;;;;14.05;6.72;;;;;;;3.04;63.22;101197.69;5036607;28;20040;-83
2022/01/18 06:32:57;;;;;;;18.08;8.63;;;;;;;2.98;63.10;101183.78;5036053;28;20117;-84
2022/01/18 06:35:22;;;;;;;15.80;8.38;;;;;;;2.97;63.13;101190.88;5034947;28;20391;-83
2022/01/18 06:37:47;;;;;;;12.80;7.30;;;;;;;3.09;62.97;101208.09;5035848;28;20098;-82
2022/01/18 06:40:16;;;;;;;19.17;7.80;;;;;;;3.02;62.67;101191.56;5035671;28;20675;-92
2022/01/18 06:42:42;;;;;;;12.50;7.55;;;;;;;3.08;62.54;101175.38;5036630;28;20053;-88
2022/01/18 06:45:09;;;;;;;14.30;7.80;;;;;;;3.12;62.30;101169.00;5033983;28;20495;-89
2022/01/18 06:47:34;;;;;;;19.17;7.63;;;;;;;3.05;62.03;101164.00;5036422;28;20033;-87
2022/01/18 06:50:00;;;;;;;15.45;7.25;;;;;;;3.04;61.41;101163.13;5034640;28;20234;-89
2022/01/18 06:52:26;;;;;;;11.32;6.45;;;;;;;3.16;60.58;101175.91;5035772;28;20035;-89
2022/01/18 06:54:51;;;;;;;12.40;5.40;;;;;;;3.35;59.75;101185.75;5037581;28;20021;-87
2022/01/18 06:57:17;;;;;;;16.13;7.80;;;;;;;3.23;57.99;101147.28;5042642;28;20048;-88
2022/01/18 06:59:42;;;;;;;12.10;6.43;;;;;;;3.34;57.65;101144.16;5056441;28;20001;-87
2022/01/18 07:02:08;;;;;;;16.90;7.03;;;;;;;3.55;57.10;101177.78;5050274;28;20037;-89
2022/01/18 07:04:34;;;;;;;11.30;5.93;;;;;;;3.59;57.48;101174.06;5038523;28;20009;-89
2022/01/18 07:06:59;;;;;;;17.05;6.85;;;;;;;3.53;56.01;101142.41;5039971;28;20148;-90
2022/01/18 07:09:25;;;;;;;15.38;6.65;;;;;;;3.81;56.50;101167.72;5038730;28;20029;-88
2022/01/18 07:11:56;;;;;;;17.00;7.60;;;;;;;4.00;54.81;101177.53;5036126;28;20033;-86
2022/01/18 07:14:22;;;;;;;20.17;7.20;;;;;;;3.97;54.61;101186.53;5040291;28;20112;-83
2022/01/18 07:16:48;;;;;;;19.00;5.80;;;;;;;3.92;54.16;101179.66;5036517;28;20029;-84
2022/01/18 07:19:13;;;;;;;11.00;4.60;;;;;;;4.02;53.78;101205.81;5040901;28;20053;-81
2022/01/18 07:21:39;;;;;;;11.95;4.97;;;;;;;4.05;53.60;101207.47;5042539;28;20044;-84
2022/01/18 07:24:19;;;;;;;14.63;7.57;;;;;;;4.02;53.61;101208.47;5039656;28;20025;-93
2022/01/18 07:26:46;;;;;;;18.40;5.18;;;;;;;3.97;53.11;101175.03;5035059;28;20029;-89
2022/01/18 07:29:15;;;;;;;11.35;5.90;;;;;;;4.10;52.45;101187.69;5038902;28;20029;-86
2022/01/18 07:31:40;;;;;;;11.50;4.90;;;;;;;4.24;51.59;101209.22;5034969;28;20029;-81
2022/01/18 07:34:07;;;;;;;42.65;16.27;;;;;;;4.09;50.39;101179.78;5034350;28;20021;-80
2022/01/18 07:36:34;;;;;;;20.63;10.85;;;;;;;3.99;50.73;101183.78;5033592;28;20025;-81
2022/01/18 07:38:59;;;;;;;10.57;4.15;;;;;;;4.14;50.76;101215.91;5032995;28;20045;-78
2022/01/18 07:41:25;;;;;;;24.23;10.27;;;;;;;4.13;50.27;101227.47;5031899;28;20037;-77
2022/01/18 07:43:50;;;;;;;9.50;4.30;;;;;;;4.14;49.84;101233.66;5032310;28;20100;-77
2022/01/18 07:46:16;;;;;;;5.80;3.30;;;;;;;4.13;50.51;101234.59;5032337;28;20037;-78
2022/01/18 07:48:41;;;;;;;5.70;2.63;;;;;;;4.08;50.06;101221.50;5031875;28;20057;-78
2022/01/18 07:51:06;;;;;;;9.20;3.38;;;;;;;4.02;50.90;101224.44;5031601;28;20549;-81
2022/01/18 07:53:32;;;;;;;7.68;3.85;;;;;;;4.10;50.20;101235.59;5032225;28;20028;-77
2022/01/18 07:55:57;;;;;;;9.65;4.10;;;;;;;4.01;50.62;101238.66;5031643;28;20475;-81
2022/01/18 07:58:23;;;;;;;5.63;3.58;;;;;;;4.07;50.33;101251.69;5031623;28;20398;-79
2022/01/18 08:00:48;;;;;;;5.43;2.63;;;;;;;4.06;50.50;101263.28;5031499;28;20075;-77
2022/01/18 08:03:14;;;;;;;7.53;3.50;;;;;;;4.04;50.50;101262.47;5023509;28;20113;-75
2022/01/18 08:05:40;;;;;;;14.20;4.70;;;;;;;4.04;50.52;101257.16;5014722;28;20468;-76
2022/01/18 08:08:05;;;;;;;12.82;4.97;;;;;;;4.08;50.54;101279.19;5028579;28;20029;-78
2022/01/18 08:10:31;;;;;;;18.63;6.60;;;;;;;4.10;50.79;101269.31;5030365;28;20115;-79
2022/01/18 08:13:00;;;;;;;10.60;4.45;;;;;;;4.18;50.99;101270.72;5031673;28;20068;-77
2022/01/18 08:15:26;;;;;;;10.52;3.90;;;;;;;4.25;51.10;101271.31;5032006;28;20029;-84
2022/01/18 08:17:53;;;;;;;12.70;3.67;;;;;;;4.30;50.76;101280.84;5033136;28;20021;-82
2022/01/18 08:20:18;;;;;;;9.10;3.38;;;;;;;4.40;49.76;101276.78;5033184;28;20029;-81
2022/01/18 08:22:46;;;;;;;6.13;3.03;;;;;;;4.53;49.90;101302.88;5033235;28;20052;-82
2022/01/18 08:25:15;;;;;;;7.15;3.33;;;;;;;4.54;49.56;101307.28;5033005;28;20025;-82
2022/01/18 08:27:42;;;;;;;8.02;3.67;;;;;;;4.51;49.95;101297.63;5032792;28;20033;-82
2022/01/18 08:30:11;;;;;;;8.57;3.47;;;;;;;4.56;49.71;101318.72;5032239;28;20403;-80
2022/01/18 08:32:38;;;;;;;4.63;2.60;;;;;;;4.53;49.33;101309.06;5032978;28;20099;-80
2022/01/18 08:35:05;;;;;;;8.38;3.40;;;;;;;4.58;49.14;101317.72;5033378;28;20032;-78
2022/01/18 08:37:31;;;;;;;11.30;4.82;;;;;;;4.56;49.47;101300.06;5044777;28;20021;-81
2022/01/18 08:39:56;;;;;;;6.55;3.35;;;;;;;4.69;49.55;101330.53;5052076;28;20521;-81
2022/01/18 08:42:22;;;;;;;14.07;3.60;;;;;;;4.78;49.69;101325.66;5037414;28;20032;-81
2022/01/18 08:44:48;;;;;;;12.48;3.80;;;;;;;4.84;48.87;101341.38;5032495;28;20032;-81
2022/01/18 08:47:15;;;;;;;10.68;3.60;;;;;;;4.93;48.62;101350.72;5032204;28;20037;-79
2022/01/18 08:49:41;;;;;;;6.00;3.67;;;;;;;4.95;48.40;101344.38;5032312;28;20051;-81
2022/01/18 08:52:07;;;;;;;12.85;4.95;;;;;;;5.08;47.47;101338.47;5033026;28;20069;-81
2022/01/18 08:54:34;;;;;;;6.70;3.83;;;;;;;5.13;47.02;101337.34;5032382;28;20499;-80
2022/01/18 08:57:00;;;;;;;15.68;6.47;;;;;;;5.27;47.32;101342.88;5035436;28;20025;-80
2022/01/18 08:59:26;;;;;;;16.35;5.20;;;;;;;5.37;47.18;101361.97;5046076;28;20040;-80
2022/01/18 09:01:52;;;;;;;14.45;5.88;;;;;;;5.49;47.16;101345.38;5045846;28;20041;-79
2022/01/18 09:04:23;;;;;;;15.38;5.78;;;;;;;5.70;46.57;101348.78;5044044;28;20103;-82
2022/01/18 09:06:50;;;;;;;11.73;4.57;;;;;;;5.82;46.02;101348.16;5033982;28;20064;-84
2022/01/18 09:09:17;;;;;;;15.85;6.75;;;;;;;5.86;45.17;101349.78;5036097;28;20444;-83
2022/01/18 09:11:45;;;;;;;18.02;6.82;;;;;;;5.92;45.77;101338.78;5037744;28;20026;-82
2022/01/18 09:14:11;;;;;;;13.02;5.45;;;;;;;6.01;45.43;101344.53;5038663;28;20025;-83
2022/01/18 09:16:36;;;;;;;9.20;3.95;;;;;;;6.01;44.76;101327.63;5037090;28;20109;-85
2022/01/18 09:19:02;;;;;;;8.70;4.57;;;;;;;6.17;44.26;101355.28;5036999;28;20455;-82
2022/01/18 09:21:27;;;;;;;18.90;5.38;;;;;;;6.25;44.58;101346.84;5035497;28;20025;-83
2022/01/18 09:23:53;;;;;;;25.27;7.28;;;;;;;6.37;44.42;101338.19;5035370;28;20487;-82
2022/01/18 09:26:19;;;;;;;26.65;6.30;;;;;;;6.44;43.94;101335.13;5036333;28;20029;-81
2022/01/18 09:28:44;;;;;;;14.88;5.53;;;;;;;6.54;43.38;101340.88;5035256;28;20029;-84
2022/01/18 09:31:10;;;;;;;14.63;5.53;;;;;;;6.64;43.72;101346.56;5022551;28;20030;-82
2022/01/18 09:33:36;;;;;;;17.70;5.93;;;;;;;6.60;43.31;101327.16;5016150;28;20061;-83
2022/01/18 09:36:03;;;;;;;11.77;5.25;;;;;;;6.61;43.05;101328.88;5017445;28;20025;-81
2022/01/18 09:38:28;;;;;;;26.92;8.10;;;;;;;6.72;43.35;101320.28;5023102;28;20435;-83
2022/01/18 09:40:54;;;;;;;16.00;6.15;;;;;;;6.85;43.42;101327.53;5022280;28;20064;-83
2022/01/18 09:43:20;;;;;;;16.67;6.35;;;;;;;7.02;42.27;101340.00;5025386;28;20056;-82
2022/01/18 09:45:45;;;;;;;10.73;5.25;;;;;;;7.18;41.81;101366.75;5015792;28;20030;-83
2022/01/18 09:48:13;;;;;;;9.48;5.45;;;;;;;7.14;40.76;101344.66;5016153;28;20084;-82
2022/01/18 09:50:40;;;;;;;12.82;4.60;;;;;;;7.03;41.50;101333.72;5017839;28;20030;-84
2022/01/18 09:53:09;;;;;;;9.90;4.68;;;;;;;7.04;40.80;101354.13;5027195;28;20484;-82
2022/01/18 09:55:37;;;;;;;22.92;7.75;;;;;;;6.99;41.38;101341.03;5026052;28;20033;-82
2022/01/18 09:58:06;;;;;;;30.17;8.90;;;;;;;7.03;41.05;101352.44;5015550;28;20029;-84
2022/01/18 10:00:33;;;;;;;14.98;7.38;;;;;;;7.14;41.50;101350.00;5015143;28;20025;-82
2022/01/18 10:02:59;;;;;;;11.93;4.97;;;;;;;7.16;41.08;101345.44;5015584;28;20420;-82
2022/01/18 10:05:31;;;;;;;13.23;5.03;;;;;;;7.28;40.86;101343.91;5030650;28;20025;-82
2022/01/18 10:08:16;;;;;;;8.10;3.28;;;;;;;7.29;39.61;101329.56;5035131;28;20029;-83
2022/01/18 10:10:47;;;;;;;10.65;3.25;;;;;;;7.28;39.52;101351.94;5035376;28;20037;-82
2022/01/18 10:13:33;;;;;;;18.25;3.50;;;;;;;7.32;39.85;101359.69;5035122;28;20029;-84
2022/01/18 10:16:10;;;;;;;23.00;5.07;;;;;;;7.36;40.02;101365.72;5039144;28;20025;-83
2022/01/18 10:18:48;;;;;;;6.80;3.22;;;;;;;7.31;39.61;101352.59;5055371;28;20033;-82
2022/01/18 10:21:35;;;;;;;31.75;4.80;;;;;;;7.33;39.68;101361.41;5036897;28;20045;-83
2022/01/18 10:24:20;;;;;;;12.98;5.25;;;;;;;7.44;40.09;101356.31;5036188;28;20029;-82
2022/01/18 10:26:48;;;;;;;11.15;4.15;;;;;;;7.42;39.69;101344.84;5035552;28;20029;-83
2022/01/18 10:29:14;;;;;;;8.98;3.88;;;;;;;7.61;39.16;101372.25;5035195;28;20035;-83
2022/01/18 10:31:54;;;;;;;13.38;4.13;;;;;;;7.43;38.22;101367.13;5035389;28;20116;-83
2022/01/18 10:34:43;;;;;;;5.28;2.67;;;;;;;7.26;37.47;101357.34;5036294;28;20021;-83
2022/01/18 10:37:11;;;;;;;12.95;3.83;;;;;;;7.13;38.94;101375.88;5034855;28;20112;-82
2022/01/18 10:39:42;;;;;;;14.75;4.05;;;;;;;7.04;39.27;101346.13;5034615;28;20057;-83
2022/01/18 10:42:18;;;;;;;8.05;2.95;;;;;;;7.11;39.40;101366.22;5034791;28;20025;-82
2022/01/18 10:44:46;;;;;;;10.10;4.10;;;;;;;7.09;40.23;101360.13;5034232;28;20025;-84
2022/01/18 10:47:12;;;;;;;12.20;4.13;;;;;;;7.20;40.79;101355.03;5034795;28;20040;-83
2022/01/18 10:49:46;;;;;;;11.05;3.55;;;;;;;7.40;39.89;101373.47;5034687;28;20029;-83
2022/01/18 10:52:13;;;;;;;9.90;3.20;;;;;;;7.41;39.46;101359.16;5034397;28;20036;-83
2022/01/18 10:54:43;;;;;;;9.43;3.70;;;;;;;7.60;38.88;101377.72;5034517;28;20029;-82
2022/01/18 10:57:11;;;;;;;12.55;3.50;;;;;;;7.61;39.55;101368.75;5034563;28;20448;-83
2022/01/18 10:59:38;;;;;;;8.15;3.42;;;;;;;7.44;39.08;101347.41;5034182;28;20033;-82
2022/01/18 11:02:19;;;;;;;10.05;3.17;;;;;;;7.46;38.74;101378.50;5034044;28;20095;-83
2022/01/18 11:04:53;;;;;;;12.38;3.35;;;;;;;7.32;39.19;101373.06;5037732;28;20029;-82
2022/01/18 11:07:22;;;;;;;18.20;5.15;;;;;;;7.50;39.81;101387.22;5033498;28;20441;-81
2022/01/18 11:09:48;;;;;;;13.95;4.90;;;;;;;7.52;39.73;101388.00;5032190;28;20498;-84
2022/01/18 11:12:14;;;;;;;6.03;3.55;;;;;;;7.64;39.82;101393.50;5033700;28;20080;-82
2022/01/18 11:14:45;;;;;;;18.05;4.35;;;;;;;7.79;39.40;101390.91;5033965;28;20460;-84
2022/01/18 11:17:21;;;;;;;12.13;3.00;;;;;;;7.89;39.71;101386.75;5033816;28;20032;-82
2022/01/18 11:19:48;;;;;;;24.25;8.45;;;;;;;8.04;39.54;101392.06;5034007;28;20036;-84
2022/01/18 11:22:14;;;;;;;6.10;3.30;;;;;;;8.03;38.46;101385.00;5033938;28;20498;-83
2022/01/18 11:24:42;;;;;;;10.68;4.35;;;;;;;8.20;37.97;101392.03;5033407;28;20022;-81
2022/01/18 11:27:12;;;;;;;9.93;3.70;;;;;;;8.36;37.90;101378.59;5033578;28;20469;-81
2022/01/18 11:29:39;;;;;;;19.23;4.55;;;;;;;8.47;38.09;101377.00;5032488;28;20399;-84
2022/01/18 11:32:06;;;;;;;10.98;5.38;;;;;;;8.49;38.17;101377.78;5033828;28;20025;-83
2022/01/18 11:34:50;;;;;;;12.88;4.55;;;;;;;8.46;37.67;101401.22;5033275;28;20022;-82
2022/01/18 11:37:34;;;;;;;8.20;3.67;;;;;;;8.33;37.10;101397.56;5033745;28;20098;-83
2022/01/18 11:40:08;;;;;;;9.57;3.35;;;;;;;8.13;37.23;101396.03;5033018;28;20049;-81
2022/01/18 11:42:50;;;;;;;7.72;3.78;;;;;;;7.91;36.61;101374.13;5033751;28;20036;-84
2022/01/18 11:45:25;;;;;;;16.40;4.13;;;;;;;7.85;36.92;101393.25;5035032;28;20464;-83
2022/01/18 11:48:26;;;;;;;7.63;3.13;;;;;;;7.72;36.74;101389.53;5033192;28;20064;-83
2022/01/18 11:51:05;;;;;;;7.78;3.42;;;;;;;7.63;37.25;101394.47;4992543;28;20479;-83
2022/01/18 11:53:43;;;;;;;8.63;3.90;;;;;;;7.63;38.54;101407.00;5029531;28;20057;-84
2022/01/18 11:56:35;;;;;;;10.20;4.78;;;;;;;7.71;38.40;101394.03;5046075;28;20040;-82
2022/01/18 11:59:13;;;;;;;14.07;6.10;;;;;;;7.98;38.33;101405.81;5050298;28;20064;-83
2022/01/18 12:01:59;;;;;;;12.38;3.38;;;;;;;8.04;37.18;101404.63;5033989;28;20045;-82
2022/01/18 12:04:41;;;;;;;8.82;3.85;;;;;;;8.03;36.54;101417.16;5033215;28;20045;-84
2022/01/18 12:07:38;;;;;;;9.40;4.65;;;;;;;8.01;36.98;101408.31;5033819;28;20047;-83
2022/01/18 12:10:30;;;;;;;16.35;5.35;;;;;;;8.00;37.46;101416.47;5037421;28;20036;-84
2022/01/18 12:13:01;;;;;;;16.58;4.63;;;;;;;7.86;37.56;101386.94;5005393;28;20076;-83
2022/01/18 12:15:32;;;;;;;19.30;5.50;;;;;;;7.94;37.60;101396.25;5053990;28;20024;-86
2022/01/18 12:18:22;;;;;;;11.20;4.65;;;;;;;8.13;38.08;101412.94;5037968;28;20021;-83
2022/01/18 12:20:57;;;;;;;17.42;5.28;;;;;;;8.14;36.94;101413.81;5052048;28;20498;-84
2022/01/18 12:23:29;;;;;;;8.80;4.00;;;;;;;7.93;35.97;101407.03;5053848;28;20510;-84
2022/01/18 12:26:04;;;;;;;11.57;5.03;;;;;;;7.68;36.75;101399.56;5054191;28;20021;-88
2022/01/18 12:34:28;;;;;;;12.57;4.70;;;;;;;7.83;36.34;101414.75;5053940;28;20032;-84
2022/01/18 12:36:53;;;;;;;12.10;4.78;;;;;;;7.83;36.58;101413.91;5036019;28;20034;-85
2022/01/18 12:39:19;;;;;;;17.88;7.55;;;;;;;7.78;36.50;101415.97;5035745;28;20083;-85
2022/01/18 12:41:51;;;;;;;10.95;3.70;;;;;;;7.76;36.70;101423.22;5047588;28;20029;-83
2022/01/18 12:44:22;;;;;;;17.60;4.43;;;;;;;7.65;37.94;101416.66;5038043;28;20043;-78
2022/01/18 12:46:55;;;;;;;13.27;5.15;;;;;;;7.77;37.54;101423.13;5056116;28;20029;-80
2022/01/18 12:49:21;;;;;;;12.75;4.78;;;;;;;7.75;37.62;101426.84;5055843;28;20037;-76
2022/01/18 12:51:54;;;;;;;10.40;3.75;;;;;;;7.79;37.24;101436.44;5055410;28;20096;-77
2022/01/18 12:54:20;;;;;;;22.98;11.02;;;;;;;7.86;36.31;101443.19;5037731;28;20086;-78